Time;durP1;ratioP1;P1;durP2;ratioP2;P2;SDS_P1;SDS_P2;PMS_P1;PMS_P2;Temp;Humidity;BMP_temperature;BMP_pressure;BME280_temperature;BME280_humidity;BME280_pressure;Samples;Min_cycle;Max_cycle;Signal;HPM_P1;HPM_P2
2023/12/04 00:01:29;;;;;;;5.55;5.05;;;;;;;;;;4959751;28;20094;-80
2023/12/04 00:03:55;;;;;;;3.75;3.45;;;;;;;;;;4978094;28;20066;-81
2023/12/04 00:06:21;;;;;;;9.00;6.78;;;;;;;;;;4996054;28;20058;-80
2023/12/04 00:08:47;;;;;;;3.55;3.28;;;;;;;;;;4993611;28;20042;-80
2023/12/04 00:11:13;;;;;;;5.25;4.47;;;;;;;;;;4993275;28;20077;-80
2023/12/04 00:13:39;;;;;;;6.82;5.35;;;;;;;;;;4992367;28;20030;-79
2023/12/04 00:16:06;;;;;;;6.88;5.20;;;;;;;;;;4989088;28;20054;-82
2023/12/04 00:18:32;;;;;;;7.93;6.07;;;;;;;;;;4953252;28;20042;-82
2023/12/04 00:20:58;;;;;;;5.50;5.05;;;;;;;;;;4951699;29;20051;-79
2023/12/04 00:23:24;;;;;;;5.63;5.13;;;;;;;;;;4975549;28;20043;-81
2023/12/04 00:25:51;;;;;;;5.07;4.68;;;;;;;;;;4990976;28;20081;-81
2023/12/04 00:28:17;;;;;;;4.32;4.03;;;;;;;;;;4978224;28;20051;-80
2023/12/04 00:30:43;;;;;;;9.05;5.03;;;;;;;;;;4995183;28;20054;-79
2023/12/04 00:33:09;;;;;;;4.10;3.80;;;;;;;;;;4994271;28;20039;-78
2023/12/04 00:35:35;;;;;;;4.80;4.40;;;;;;;;;;4995245;28;20023;-81
2023/12/04 00:38:01;;;;;;;5.38;4.85;;;;;;;;;;4994036;28;20042;-80
2023/12/04 00:40:27;;;;;;;3.65;3.35;;;;;;;;;;4994984;28;20057;-81
2023/12/04 00:42:53;;;;;;;9.43;5.30;;;;;;;;;;4980143;28;21034;-81
2023/12/04 00:45:19;;;;;;;4.63;3.90;;;;;;;;;;4995484;28;20065;-81
2023/12/04 00:47:45;;;;;;;6.18;3.90;;;;;;;;;;4990493;28;20030;-81
2023/12/04 00:50:12;;;;;;;6.68;6.07;;;;;;;;;;4988404;28;20026;-80
2023/12/04 00:52:38;;;;;;;6.55;5.53;;;;;;;;;;4969560;28;20030;-80
2023/12/04 00:55:04;;;;;;;5.55;5.03;;;;;;;;;;4986699;28;20066;-79
2023/12/04 00:57:30;;;;;;;5.18;4.70;;;;;;;;;;4989522;28;20074;-79
2023/12/04 00:59:56;;;;;;;5.35;4.03;;;;;;;;;;4988222;28;20125;-80
2023/12/04 01:02:22;;;;;;;5.03;4.53;;;;;;;;;;4985477;28;20429;-79
2023/12/04 01:04:48;;;;;;;3.47;3.28;;;;;;;;;;4986942;28;20043;-78
2023/12/04 01:07:14;;;;;;;9.05;4.45;;;;;;;;;;4990971;28;20081;-79
2023/12/04 01:09:40;;;;;;;4.03;3.72;;;;;;;;;;4990888;28;20035;-79
2023/12/04 01:12:07;;;;;;;4.43;4.13;;;;;;;;;;4974800;28;20059;-78
2023/12/04 01:14:33;;;;;;;6.72;5.95;;;;;;;;;;4989499;28;20035;-79
2023/12/04 01:16:59;;;;;;;5.07;4.40;;;;;;;;;;4987304;28;20049;-78
2023/12/04 01:19:25;;;;;;;3.47;3.22;;;;;;;;;;4985623;28;20075;-81
2023/12/04 01:21:51;;;;;;;6.07;5.10;;;;;;;;;;4988214;28;20022;-80
2023/12/04 01:24:17;;;;;;;5.47;4.97;;;;;;;;;;4988513;28;20084;-79
2023/12/04 01:26:43;;;;;;;4.35;3.83;;;;;;;;;;4989758;28;20140;-80
2023/12/04 01:29:09;;;;;;;4.93;4.13;;;;;;;;;;4971002;28;20050;-79
2023/12/04 01:31:35;;;;;;;8.82;6.38;;;;;;;;;;4985243;28;20066;-78
2023/12/04 01:34:01;;;;;;;5.15;4.22;;;;;;;;;;4982200;28;20126;-79
2023/12/04 01:36:27;;;;;;;5.22;4.80;;;;;;;;;;4982981;28;20109;-79
2023/12/04 01:38:53;;;;;;;7.57;6.90;;;;;;;;;;4982898;28;20513;-80
2023/12/04 01:41:19;;;;;;;4.45;4.05;;;;;;;;;;4966112;28;20472;-77
2023/12/04 01:43:45;;;;;;;9.10;6.72;;;;;;;;;;4986869;28;20065;-80
2023/12/04 01:46:11;;;;;;;6.07;5.47;;;;;;;;;;4987236;28;20050;-81
2023/12/04 01:48:37;;;;;;;7.07;6.47;;;;;;;;;;4989297;28;20031;-80
2023/12/04 01:51:04;;;;;;;6.55;4.68;;;;;;;;;;4991897;28;20523;-79
2023/12/04 01:53:31;;;;;;;8.23;7.13;;;;;;;;;;4992543;28;20038;-80
2023/12/04 01:55:57;;;;;;;5.75;4.97;;;;;;;;;;4992393;28;20094;-82
2023/12/04 01:58:23;;;;;;;4.18;3.78;;;;;;;;;;4993812;28;20066;-80
2023/12/04 02:00:49;;;;;;;3.10;2.90;;;;;;;;;;4992174;28;20054;-80
2023/12/04 02:03:15;;;;;;;6.43;4.78;;;;;;;;;;4989322;28;20062;-80
2023/12/04 02:05:41;;;;;;;5.32;4.82;;;;;;;;;;4991661;28;20074;-80
2023/12/04 02:08:07;;;;;;;7.93;6.88;;;;;;;;;;4994748;28;20115;-80
2023/12/04 02:10:33;;;;;;;6.97;5.40;;;;;;;;;;4978700;28;20045;-81
2023/12/04 02:12:59;;;;;;;7.80;5.20;;;;;;;;;;4990758;28;20069;-78
2023/12/04 02:15:26;;;;;;;3.38;2.90;;;;;;;;;;4992754;28;20045;-81
2023/12/04 02:17:52;;;;;;;4.35;3.95;;;;;;;;;;4995642;28;20045;-80
2023/12/04 02:20:18;;;;;;;6.85;5.20;;;;;;;;;;4994642;28;20042;-80
2023/12/04 02:22:44;;;;;;;6.50;5.70;;;;;;;;;;4996256;28;20091;-81
2023/12/04 02:25:11;;;;;;;5.85;5.35;;;;;;;;;;4995565;28;20039;-81
2023/12/04 02:27:38;;;;;;;2.72;2.63;;;;;;;;;;4993589;28;20033;-80
2023/12/04 02:30:05;;;;;;;3.30;3.10;;;;;;;;;;4995376;28;20074;-81
2023/12/04 02:32:31;;;;;;;4.38;3.42;;;;;;;;;;4997521;28;20015;-82
2023/12/04 02:34:57;;;;;;;4.47;4.07;;;;;;;;;;4996976;28;20035;-82
2023/12/04 02:37:23;;;;;;;5.82;5.30;;;;;;;;;;4993840;28;20599;-81
2023/12/04 02:39:52;;;;;;;6.25;5.60;;;;;;;;;;4992518;28;20042;-79
2023/12/04 02:42:19;;;;;;;5.40;4.90;;;;;;;;;;4996049;28;20099;-81
2023/12/04 02:44:45;;;;;;;5.57;4.97;;;;;;;;;;4980067;28;20062;-79
2023/12/04 02:47:11;;;;;;;7.22;5.30;;;;;;;;;;4994640;28;20055;-81
2023/12/04 02:49:37;;;;;;;7.97;5.55;;;;;;;;;;4979724;28;20057;-81
2023/12/04 02:52:03;;;;;;;6.53;6.00;;;;;;;;;;4994620;28;20051;-80
2023/12/04 02:54:29;;;;;;;5.15;4.40;;;;;;;;;;4993956;28;20035;-81
2023/12/04 02:56:56;;;;;;;4.75;4.38;;;;;;;;;;4964958;28;20038;-82
2023/12/04 02:59:21;;;;;;;5.80;4.70;;;;;;;;;;4981622;28;20073;-81
2023/12/04 03:01:48;;;;;;;5.63;4.85;;;;;;;;;;4996603;28;20042;-81
2023/12/04 03:04:14;;;;;;;6.15;5.50;;;;;;;;;;4987438;28;20050;-79
2023/12/04 03:06:39;;;;;;;6.65;4.32;;;;;;;;;;4990957;28;20105;-77
2023/12/04 03:09:06;;;;;;;6.10;5.15;;;;;;;;;;4987391;28;20111;-79
2023/12/04 03:11:32;;;;;;;5.43;5.00;;;;;;;;;;4978144;28;20053;-80
2023/12/04 03:13:59;;;;;;;5.13;3.85;;;;;;;;;;4979900;28;20042;-79
2023/12/04 03:16:25;;;;;;;7.53;5.40;;;;;;;;;;4982042;28;20096;-79
2023/12/04 03:18:51;;;;;;;8.27;6.85;;;;;;;;;;4993041;28;20038;-82
2023/12/04 03:21:17;;;;;;;7.38;5.80;;;;;;;;;;4996991;28;20099;-81
2023/12/04 03:23:44;;;;;;;10.00;6.13;;;;;;;;;;4997050;28;20039;-79
2023/12/04 03:26:09;;;;;;;6.38;5.05;;;;;;;;;;4994347;28;20106;-81
2023/12/04 03:28:35;;;;;;;6.22;5.63;;;;;;;;;;4988897;28;20070;-81
2023/12/04 03:31:02;;;;;;;9.25;6.10;;;;;;;;;;4995140;28;20082;-78
2023/12/04 03:33:28;;;;;;;7.00;6.30;;;;;;;;;;4996574;28;20043;-80
2023/12/04 03:35:54;;;;;;;9.45;6.93;;;;;;;;;;4996954;28;20101;-82
2023/12/04 03:38:20;;;;;;;7.53;6.78;;;;;;;;;;4996793;28;20034;-78
2023/12/04 03:40:46;;;;;;;5.28;4.80;;;;;;;;;;4995008;28;20042;-79
2023/12/04 03:43:12;;;;;;;5.90;5.38;;;;;;;;;;4995172;28;20039;-83
2023/12/04 03:45:38;;;;;;;5.57;5.03;;;;;;;;;;4996229;28;20060;-81
2023/12/04 03:48:04;;;;;;;7.85;5.13;;;;;;;;;;4997201;28;20043;-82
2023/12/04 03:50:30;;;;;;;7.50;6.80;;;;;;;;;;4996490;28;20043;-82
2023/12/04 03:52:56;;;;;;;6.00;5.43;;;;;;;;;;4996154;28;20049;-82
2023/12/04 03:55:23;;;;;;;5.78;5.30;;;;;;;;;;4995780;28;20098;-80
2023/12/04 03:57:49;;;;;;;6.43;4.78;;;;;;;;;;4993955;28;20050;-81
2023/12/04 04:00:15;;;;;;;7.75;6.93;;;;;;;;;;4994285;28;20094;-81
2023/12/04 04:02:42;;;;;;;11.93;8.30;;;;;;;;;;4996007;28;20035;-81
2023/12/04 04:05:08;;;;;;;6.63;6.00;;;;;;;;;;4987520;28;20053;-81
2023/12/04 04:07:34;;;;;;;6.78;5.95;;;;;;;;;;4996571;28;20030;-81
2023/12/04 04:10:00;;;;;;;8.20;7.45;;;;;;;;;;4996492;28;20043;-81
2023/12/04 04:12:27;;;;;;;9.52;8.32;;;;;;;;;;4996168;28;20134;-81
2023/12/04 04:14:53;;;;;;;8.70;7.97;;;;;;;;;;4995291;28;20034;-81
2023/12/04 04:17:19;;;;;;;8.07;7.00;;;;;;;;;;4996385;28;20030;-84
2023/12/04 04:28:40;;;;;;;6.10;5.40;;;;;;;;;;5257934;23;20129;-81
2023/12/04 04:31:06;;;;;;;13.27;9.80;;;;;;;;;;5002132;28;20042;-81
2023/12/04 04:33:32;;;;;;;9.80;8.80;;;;;;;;;;5000782;28;20517;-80
2023/12/04 04:35:58;;;;;;;6.25;5.47;;;;;;;;;;4968539;28;20074;-81
2023/12/04 04:38:24;;;;;;;11.25;7.85;;;;;;;;;;5127630;23;20239;-74
2023/12/04 04:40:52;;;;;;;7.45;6.75;;;;;;;;;;5013865;28;20102;-81
2023/12/04 04:43:19;;;;;;;9.13;7.35;;;;;;;;;;4988473;28;20026;-80
2023/12/04 04:45:45;;;;;;;7.30;6.05;;;;;;;;;;4986754;28;20031;-80
2023/12/04 04:50:59;;;;;;;11.48;10.38;;;;;;;;;;5183582;23;20058;-82
2023/12/04 04:53:25;;;;;;;10.27;9.10;;;;;;;;;;4995735;28;20106;-82
2023/12/04 04:55:51;;;;;;;7.97;7.00;;;;;;;;;;4977447;28;20178;-82
2023/12/04 04:58:17;;;;;;;10.75;8.20;;;;;;;;;;5066525;23;20048;-81
2023/12/04 05:00:43;;;;;;;7.78;6.07;;;;;;;;;;5039555;23;20078;-81
2023/12/04 05:03:10;;;;;;;9.50;7.40;;;;;;;;;;5211235;23;20037;-83
2023/12/04 05:05:36;;;;;;;6.43;5.82;;;;;;;;;;5254784;23;20206;-77
2023/12/04 05:08:02;;;;;;;10.32;9.25;;;;;;;;;;5114561;23;20059;-77
2023/12/04 05:10:28;;;;;;;9.20;7.75;;;;;;;;;;5277266;23;20053;-78
2023/12/04 05:15:28;;;;;;;10.98;8.35;;;;;;;;;;5523447;23;20066;-77
2023/12/04 05:20:49;;;;;;;7.65;7.00;;;;;;;;;;4979058;26;20054;-78
2023/12/04 05:23:15;;;;;;;8.15;6.68;;;;;;;;;;4995161;28;20074;-78
2023/12/04 05:25:41;;;;;;;7.05;5.68;;;;;;;;;;4980186;28;20049;-79
2023/12/04 05:28:08;;;;;;;7.13;6.15;;;;;;;;;;4985435;28;20129;-79
2023/12/04 05:30:34;;;;;;;10.73;7.90;;;;;;;;;;4957887;28;20045;-79
2023/12/04 05:33:01;;;;;;;12.13;6.97;;;;;;;;;;4977821;28;20057;-79
2023/12/04 05:35:27;;;;;;;9.15;7.53;;;;;;;;;;4978752;28;20046;-77
2023/12/04 05:37:53;;;;;;;7.15;6.35;;;;;;;;;;4991335;28;20057;-78
2023/12/04 05:40:19;;;;;;;10.07;8.02;;;;;;;;;;4993159;28;20054;-79
2023/12/04 05:42:45;;;;;;;11.20;8.45;;;;;;;;;;4992957;28;20043;-78
2023/12/04 05:45:11;;;;;;;8.43;7.40;;;;;;;;;;4995322;28;20046;-77
2023/12/04 05:47:37;;;;;;;8.77;5.97;;;;;;;;;;4993986;28;20054;-79
2023/12/04 05:50:03;;;;;;;8.48;7.07;;;;;;;;;;4992872;28;20069;-77
2023/12/04 05:52:30;;;;;;;12.32;8.55;;;;;;;;;;4993097;28;20046;-77
2023/12/04 05:54:56;;;;;;;7.53;6.55;;;;;;;;;;4999379;28;20035;-77
2023/12/04 05:57:22;;;;;;;10.57;9.55;;;;;;;;;;4997441;28;20076;-76
2023/12/04 05:59:48;;;;;;;10.95;9.80;;;;;;;;;;5002437;28;20085;-77
2023/12/04 06:02:15;;;;;;;11.35;9.95;;;;;;;;;;4999524;28;20058;-78
2023/12/04 06:04:41;;;;;;;9.85;7.95;;;;;;;;;;4993970;28;20033;-78
2023/12/04 06:07:08;;;;;;;9.55;8.55;;;;;;;;;;4991054;28;20083;-79
2023/12/04 06:09:36;;;;;;;13.98;10.15;;;;;;;;;;4987462;28;20030;-80
2023/12/04 06:12:07;;;;;;;8.02;6.50;;;;;;;;;;5001866;28;20046;-79
2023/12/04 06:14:33;;;;;;;;;;;;;;;;;;4986030;28;20058;-79
2023/12/04 06:17:00;;;;;;;17.20;10.45;;;;;;;;;;4994571;28;19921;-79
2023/12/04 06:19:27;;;;;;;7.63;5.88;;;;;;;;;;4987812;28;20055;-76
2023/12/04 06:21:53;;;;;;;7.40;6.60;;;;;;;;;;4985151;28;20043;-76
2023/12/04 06:24:19;;;;;;;12.13;7.82;;;;;;;;;;4982468;28;20106;-76
2023/12/04 06:26:45;;;;;;;10.73;9.60;;;;;;;;;;4984740;28;20432;-76
2023/12/04 06:29:11;;;;;;;10.93;6.38;;;;;;;;;;4973962;28;20038;-76
2023/12/04 06:31:38;;;;;;;7.90;6.47;;;;;;;;;;4986125;28;20072;-80
2023/12/04 06:34:04;;;;;;;10.63;5.63;;;;;;;;;;4985083;28;20039;-80
2023/12/04 06:36:31;;;;;;;8.68;7.50;;;;;;;;;;5008384;28;20046;-80
2023/12/04 06:38:58;;;;;;;9.88;6.90;;;;;;;;;;4978033;28;20030;-80
2023/12/04 06:41:24;;;;;;;9.73;8.70;;;;;;;;;;4985589;28;21544;-79
2023/12/04 06:43:50;;;;;;;8.73;7.88;;;;;;;;;;4995831;28;20015;-81
2023/12/04 06:46:16;;;;;;;13.77;10.63;;;;;;;;;;4996754;28;20082;-82
2023/12/04 06:48:43;;;;;;;10.07;7.47;;;;;;;;;;4970828;28;20093;-77
2023/12/04 06:51:09;;;;;;;13.05;10.00;;;;;;;;;;4966828;28;20065;-78
2023/12/04 06:53:35;;;;;;;11.55;8.15;;;;;;;;;;5001784;28;20046;-79
2023/12/04 06:56:01;;;;;;;10.70;8.32;;;;;;;;;;4987730;28;20038;-80
2023/12/04 06:58:27;;;;;;;7.63;4.78;;;;;;;;;;4995400;28;20211;-80
2023/12/04 07:00:53;;;;;;;7.00;5.57;;;;;;;;;;5000050;28;20026;-82
2023/12/04 07:03:19;;;;;;;4.20;3.78;;;;;;;;;;4962726;28;20034;-80
2023/12/04 07:05:45;;;;;;;12.88;9.43;;;;;;;;;;4976817;28;20046;-77
2023/12/04 07:08:11;;;;;;;8.25;7.05;;;;;;;;;;4995463;28;20038;-81
2023/12/04 07:10:36;;;;;;;9.10;7.35;;;;;;;;;;4996223;28;20110;-79
2023/12/04 07:13:02;;;;;;;8.57;7.72;;;;;;;;;;4974997;28;20042;-77
2023/12/04 07:15:29;;;;;;;12.25;9.73;;;;;;;;;;4994842;28;20057;-77
2023/12/04 07:17:55;;;;;;;8.35;7.40;;;;;;;;;;4998346;28;20038;-79
2023/12/04 07:20:23;;;;;;;8.82;7.93;;;;;;;;;;4996192;28;20144;-78
2023/12/04 07:22:49;;;;;;;9.65;8.60;;;;;;;;;;4989603;28;20043;-78
2023/12/04 07:25:16;;;;;;;11.73;9.70;;;;;;;;;;4963788;28;20049;-79
2023/12/04 07:27:42;;;;;;;9.55;6.78;;;;;;;;;;4999064;28;20432;-77
2023/12/04 07:30:08;;;;;;;8.32;7.63;;;;;;;;;;4996683;28;20042;-78
2023/12/04 07:32:35;;;;;;;6.13;5.47;;;;;;;;;;4978212;28;20096;-79
2023/12/04 07:35:01;;;;;;;7.38;5.63;;;;;;;;;;4982881;28;20118;-78
2023/12/04 07:37:31;;;;;;;11.23;7.97;;;;;;;;;;4995445;28;20489;-78
2023/12/04 07:39:57;;;;;;;5.32;4.85;;;;;;;;;;4995768;28;20039;-79
2023/12/04 07:42:23;;;;;;;12.95;10.23;;;;;;;;;;4995802;28;20046;-77
2023/12/04 07:44:49;;;;;;;9.13;8.18;;;;;;;;;;4981681;28;20038;-79
2023/12/04 07:47:15;;;;;;;8.15;7.28;;;;;;;;;;4979624;28;20113;-79
2023/12/04 07:49:42;;;;;;;9.10;8.18;;;;;;;;;;4980827;28;20073;-76
2023/12/04 07:52:08;;;;;;;6.82;6.15;;;;;;;;;;4981148;28;20129;-78
2023/12/04 07:54:34;;;;;;;8.65;7.05;;;;;;;;;;4973771;28;20420;-78
2023/12/04 07:57:00;;;;;;;7.82;6.35;;;;;;;;;;4985622;28;20034;-79
2023/12/04 07:59:26;;;;;;;8.88;7.97;;;;;;;;;;4997615;28;20052;-78
2023/12/04 08:01:52;;;;;;;10.98;7.70;;;;;;;;;;4996298;28;20137;-80
2023/12/04 08:04:18;;;;;;;10.63;4.90;;;;;;;;;;4996016;28;20097;-79
2023/12/04 08:06:44;;;;;;;8.52;6.35;;;;;;;;;;4979906;28;20058;-78
2023/12/04 08:09:10;;;;;;;7.53;6.00;;;;;;;;;;4996786;28;20039;-79
2023/12/04 08:11:37;;;;;;;9.30;7.38;;;;;;;;;;4978370;28;20106;-79
2023/12/04 08:14:03;;;;;;;9.25;6.80;;;;;;;;;;4995793;28;20052;-79
2023/12/04 08:16:29;;;;;;;12.05;9.57;;;;;;;;;;4965507;28;20050;-79
2023/12/04 08:18:56;;;;;;;7.65;6.95;;;;;;;;;;4990824;28;20051;-79
2023/12/04 08:21:22;;;;;;;8.77;7.43;;;;;;;;;;4989688;28;20050;-78
2023/12/04 08:23:48;;;;;;;10.45;7.88;;;;;;;;;;4978230;28;20471;-79
2023/12/04 08:26:15;;;;;;;6.93;6.22;;;;;;;;;;4977981;28;20572;-78
2023/12/04 08:28:41;;;;;;;13.10;7.70;;;;;;;;;;4978486;28;20070;-78
2023/12/04 08:31:08;;;;;;;9.45;6.68;;;;;;;;;;4993546;28;20214;-78
2023/12/04 08:33:37;;;;;;;13.60;8.40;;;;;;;;;;4980565;28;20046;-78
2023/12/04 08:36:03;;;;;;;9.38;7.05;;;;;;;;;;4960169;28;20390;-78
2023/12/04 08:38:29;;;;;;;9.45;6.95;;;;;;;;;;4994946;28;20059;-77
2023/12/04 08:40:55;;;;;;;14.50;10.57;;;;;;;;;;4993987;28;20058;-78
2023/12/04 08:43:21;;;;;;;13.95;6.70;;;;;;;;;;4995695;28;20058;-77
2023/12/04 08:45:47;;;;;;;10.63;8.25;;;;;;;;;;4975753;28;20502;-77
2023/12/04 08:48:13;;;;;;;14.20;10.18;;;;;;;;;;4965911;28;20046;-78
2023/12/04 08:50:39;;;;;;;13.18;7.03;;;;;;;;;;4981122;28;20096;-77
2023/12/04 08:53:05;;;;;;;7.07;5.57;;;;;;;;;;4999149;28;20042;-79
2023/12/04 08:55:31;;;;;;;7.68;6.88;;;;;;;;;;4996438;28;20042;-76
2023/12/04 08:57:57;;;;;;;7.55;6.30;;;;;;;;;;4996504;28;20030;-78
2023/12/04 09:00:23;;;;;;;6.95;6.15;;;;;;;;;;4977100;28;20050;-77
2023/12/04 09:02:49;;;;;;;10.15;7.93;;;;;;;;;;4964830;28;20039;-77
2023/12/04 09:05:16;;;;;;;11.95;10.60;;;;;;;;;;4968934;28;20517;-77
2023/12/04 09:07:42;;;;;;;12.30;9.38;;;;;;;;;;4980474;28;20043;-77
2023/12/04 09:10:08;;;;;;;12.68;10.18;;;;;;;;;;4974405;28;20054;-78
2023/12/04 09:12:36;;;;;;;10.80;8.73;;;;;;;;;;5004982;28;20035;-79
2023/12/04 09:15:03;;;;;;;9.43;6.78;;;;;;;;;;4979330;28;20047;-79
2023/12/04 09:17:32;;;;;;;11.55;7.13;;;;;;;;;;5002797;28;20448;-78
2023/12/04 09:19:59;;;;;;;7.85;6.57;;;;;;;;;;4991998;28;20050;-77
2023/12/04 09:22:25;;;;;;;12.18;7.07;;;;;;;;;;4993171;28;20122;-76
2023/12/04 09:24:51;;;;;;;7.68;5.57;;;;;;;;;;4977836;28;20077;-78
2023/12/04 09:27:17;;;;;;;6.70;6.07;;;;;;;;;;4964400;28;20539;-77
2023/12/04 09:29:43;;;;;;;7.95;6.68;;;;;;;;;;4971484;28;20105;-77
2023/12/04 09:32:10;;;;;;;7.32;6.25;;;;;;;;;;4991444;28;20059;-77
2023/12/04 09:34:36;;;;;;;10.77;6.53;;;;;;;;;;4993035;28;20674;-76
2023/12/04 09:37:02;;;;;;;7.45;6.78;;;;;;;;;;4979695;28;20051;-78
2023/12/04 09:39:28;;;;;;;9.98;7.53;;;;;;;;;;4996592;28;20101;-77
2023/12/04 09:41:54;;;;;;;6.63;5.93;;;;;;;;;;4996381;28;20090;-76
2023/12/04 09:44:20;;;;;;;8.38;7.15;;;;;;;;;;4994669;28;20145;-76
2023/12/04 09:46:46;;;;;;;5.82;5.20;;;;;;;;;;4978009;28;20058;-77
2023/12/04 09:49:12;;;;;;;7.35;6.57;;;;;;;;;;4996176;28;20046;-76
2023/12/04 09:51:38;;;;;;;8.98;6.57;;;;;;;;;;4976868;28;20421;-77
2023/12/04 09:54:04;;;;;;;8.35;5.65;;;;;;;;;;4976760;28;20058;-77
2023/12/04 09:56:31;;;;;;;4.45;4.10;;;;;;;;;;4995908;28;20030;-76
2023/12/04 09:59:00;;;;;;;4.25;3.92;;;;;;;;;;4979938;28;20116;-77
2023/12/04 10:01:27;;;;;;;8.10;7.32;;;;;;;;;;4992797;28;20065;-77
2023/12/04 10:03:53;;;;;;;9.25;7.63;;;;;;;;;;5001505;28;20155;-78
2023/12/04 10:06:19;;;;;;;7.65;5.60;;;;;;;;;;4975328;28;20107;-76
2023/12/04 10:08:45;;;;;;;8.48;6.03;;;;;;;;;;4986648;28;20073;-78
2023/12/04 10:11:12;;;;;;;9.02;8.05;;;;;;;;;;4998776;28;20057;-78
2023/12/04 10:13:40;;;;;;;6.93;5.75;;;;;;;;;;4984789;28;20463;-77
2023/12/04 10:16:06;;;;;;;7.15;6.45;;;;;;;;;;4995703;28;20192;-77
2023/12/04 10:18:32;;;;;;;6.28;5.43;;;;;;;;;;4980196;28;20092;-78
2023/12/04 10:20:58;;;;;;;4.70;4.30;;;;;;;;;;4997731;28;20070;-78
2023/12/04 10:23:37;;;;;;;12.07;7.45;;;;;;;;;;4997414;28;20070;-77
2023/12/04 10:26:04;;;;;;;8.07;6.50;;;;;;;;;;4981534;28;20413;-78
2023/12/04 10:28:30;;;;;;;8.38;7.47;;;;;;;;;;4997389;28;20045;-77
2023/12/04 10:30:56;;;;;;;11.57;9.18;;;;;;;;;;4980685;28;20042;-77
2023/12/04 10:33:22;;;;;;;12.43;8.48;;;;;;;;;;4998588;28;20663;-76
2023/12/04 10:35:48;;;;;;;8.10;6.32;;;;;;;;;;4961958;28;20491;-77
2023/12/04 10:38:14;;;;;;;6.20;4.65;;;;;;;;;;4976645;28;20049;-77
2023/12/04 10:40:40;;;;;;;6.72;5.53;;;;;;;;;;4993708;28;20050;-78
2023/12/04 10:43:09;;;;;;;10.75;7.45;;;;;;;;;;4976326;28;20535;-78
2023/12/04 10:45:39;;;;;;;9.02;6.40;;;;;;;;;;4992294;28;20062;-79
2023/12/04 10:48:05;;;;;;;9.02;7.32;;;;;;;;;;4995696;28;20038;-77
2023/12/04 10:50:35;;;;;;;10.48;8.00;;;;;;;;;;4996969;28;20130;-82
2023/12/04 10:53:04;;;;;;;10.98;7.40;;;;;;;;;;5016458;28;20034;-82
2023/12/04 10:55:30;;;;;;;11.45;9.15;;;;;;;;;;4999377;28;20102;-82
2023/12/04 19:31:24;;;;;;;10.63;8.05;;;;;;;;;;1440375;26;20520;-76
2023/12/04 19:33:51;;;;;;;21.90;12.05;;;;;;;;;;4991125;28;20061;-76
2023/12/04 19:36:18;;;;;;;16.23;10.65;;;;;;;;;;4966437;28;20046;-76
2023/12/04 19:38:44;;;;;;;15.40;8.48;;;;;;;;;;4985373;28;20041;-73
2023/12/04 19:41:11;;;;;;;11.88;7.00;;;;;;;;;;4986106;28;20046;-74
2023/12/04 19:43:38;;;;;;;20.45;8.68;;;;;;;;;;4976032;28;20108;-74
2023/12/04 19:46:04;;;;;;;20.48;9.73;;;;;;;;;;4964610;28;20054;-73
2023/12/04 19:48:30;;;;;;;24.38;11.77;;;;;;;;;;4977030;28;20073;-74
2023/12/04 19:50:57;;;;;;;19.58;10.55;;;;;;;;;;4977218;28;20043;-73
2023/12/04 19:53:23;;;;;;;20.85;11.00;;;;;;;;;;4962338;28;20061;-77
2023/12/04 19:55:50;;;;;;;16.70;9.95;;;;;;;;;;4967799;28;20124;-74
2023/12/04 19:58:16;;;;;;;21.88;9.48;;;;;;;;;;4954581;28;20057;-77
2023/12/04 20:00:42;;;;;;;19.15;10.23;;;;;;;;;;4978871;28;20039;-76
2023/12/04 20:03:10;;;;;;;6.47;4.43;;;;;;;;;;4955050;28;20066;-77
2023/12/04 20:05:36;;;;;;;6.97;5.82;;;;;;;;;;4948220;28;20105;-75
2023/12/04 20:08:04;;;;;;;22.17;11.90;;;;;;;;;;4955594;28;20513;-78
2023/12/04 20:10:30;;;;;;;14.02;8.80;;;;;;;;;;4970526;28;20035;-76
2023/12/04 20:12:57;;;;;;;27.67;12.73;;;;;;;;;;4978076;28;20061;-76
2023/12/04 20:15:23;;;;;;;21.17;12.40;;;;;;;;;;4974116;28;20047;-75
2023/12/04 20:17:49;;;;;;;25.75;13.13;;;;;;;;;;4962835;28;20047;-74
2023/12/04 20:20:17;;;;;;;29.35;12.07;;;;;;;;;;4976172;28;20074;-75
2023/12/04 20:22:43;;;;;;;20.58;9.73;;;;;;;;;;4962349;28;20498;-73
2023/12/04 20:25:09;;;;;;;10.07;8.43;;;;;;;;;;4966451;28;20130;-73
2023/12/04 20:27:35;;;;;;;21.58;13.55;;;;;;;;;;4950613;28;20593;-73
2023/12/04 20:30:02;;;;;;;25.92;12.50;;;;;;;;;;4966539;28;20042;-74
2023/12/04 20:32:30;;;;;;;17.52;8.73;;;;;;;;;;4950788;28;20513;-74
2023/12/04 20:34:58;;;;;;;16.92;9.35;;;;;;;;;;4944696;28;20106;-74
2023/12/04 20:37:24;;;;;;;21.20;10.63;;;;;;;;;;4950879;28;20049;-73
2023/12/04 20:39:50;;;;;;;25.45;12.60;;;;;;;;;;4969598;28;20035;-75
2023/12/04 20:42:18;;;;;;;29.35;12.38;;;;;;;;;;4950295;28;20045;-76
2023/12/04 20:44:45;;;;;;;24.73;13.48;;;;;;;;;;4947793;28;20043;-76
2023/12/04 20:47:11;;;;;;;25.42;11.88;;;;;;;;;;4966376;28;20537;-75
2023/12/04 20:49:37;;;;;;;32.13;13.88;;;;;;;;;;4967770;28;20070;-75
2023/12/04 20:52:06;;;;;;;19.58;10.32;;;;;;;;;;4967056;28;20469;-74
2023/12/04 20:54:32;;;;;;;22.77;10.52;;;;;;;;;;4964530;28;20047;-76
2023/12/04 20:56:58;;;;;;;30.85;13.85;;;;;;;;;;4948904;28;20046;-77
2023/12/04 20:59:25;;;;;;;18.80;10.43;;;;;;;;;;4948702;28;20413;-76
2023/12/04 21:01:51;;;;;;;24.58;12.73;;;;;;;;;;4970156;28;20722;-77
2023/12/04 21:04:18;;;;;;;15.40;8.85;;;;;;;;;;4964116;28;20070;-77
2023/12/04 21:06:44;;;;;;;26.10;10.93;;;;;;;;;;4967475;28;20054;-77
2023/12/04 21:09:10;;;;;;;13.52;10.52;;;;;;;;;;4977033;28;20051;-79
2023/12/04 21:11:36;;;;;;;25.63;12.18;;;;;;;;;;4976465;28;20049;-77
2023/12/04 21:14:02;;;;;;;24.52;12.25;;;;;;;;;;4969490;28;20063;-75
2023/12/04 21:16:28;;;;;;;24.52;10.95;;;;;;;;;;4976370;28;20203;-78
2023/12/04 21:18:54;;;;;;;20.60;11.70;;;;;;;;;;4981159;28;20076;-81
2023/12/04 21:21:20;;;;;;;23.70;12.23;;;;;;;;;;4931274;28;20042;-80
2023/12/04 21:23:46;;;;;;;26.48;14.07;;;;;;;;;;4977535;28;20563;-79
2023/12/04 21:26:12;;;;;;;24.52;12.32;;;;;;;;;;4973999;28;20054;-79
2023/12/04 21:28:38;;;;;;;24.23;13.15;;;;;;;;;;4969812;28;20105;-79
2023/12/04 21:31:05;;;;;;;20.80;10.40;;;;;;;;;;4958395;28;20050;-77
2023/12/04 21:33:31;;;;;;;13.50;8.32;;;;;;;;;;4958806;28;20416;-79
2023/12/04 21:35:58;;;;;;;27.35;14.40;;;;;;;;;;4984860;28;20094;-79
2023/12/04 21:38:24;;;;;;;19.85;11.27;;;;;;;;;;4980514;28;20137;-78
2023/12/04 21:40:50;;;;;;;24.55;12.73;;;;;;;;;;4983089;28;20046;-79
2023/12/04 21:43:17;;;;;;;27.05;13.43;;;;;;;;;;4963769;28;20047;-79
2023/12/04 21:45:44;;;;;;;17.42;11.30;;;;;;;;;;4970322;28;20051;-80
2023/12/04 21:48:10;;;;;;;21.52;12.40;;;;;;;;;;4962683;28;20061;-78
2023/12/04 21:50:37;;;;;;;29.92;12.65;;;;;;;;;;4983610;28;20046;-80
2023/12/04 21:53:04;;;;;;;32.58;14.60;;;;;;;;;;4990122;28;20091;-80
2023/12/04 21:55:30;;;;;;;6.60;5.93;;;;;;;;;;4989700;28;20433;-81
2023/12/04 21:57:56;;;;;;;30.17;12.18;;;;;;;;;;4981170;28;20049;-81
2023/12/04 22:00:41;;;;;;;27.17;13.75;;;;;;;;;;4984586;28;20161;-81
2023/12/04 22:03:07;;;;;;;27.67;12.57;;;;;;;;;;4962079;29;20035;-82
2023/12/04 22:05:34;;;;;;;20.85;9.57;;;;;;;;;;4979081;28;20057;-79
2023/12/04 22:08:00;;;;;;;34.20;14.57;;;;;;;;;;4984088;28;20054;-80
2023/12/04 22:10:26;;;;;;;19.38;12.02;;;;;;;;;;4953105;28;20050;-78
2023/12/04 22:12:52;;;;;;;19.15;12.52;;;;;;;;;;4992534;28;20058;-80
2023/12/04 22:15:18;;;;;;;25.75;13.20;;;;;;;;;;4987901;28;20042;-79
2023/12/04 22:17:44;;;;;;;21.98;12.27;;;;;;;;;;4986677;28;20038;-79
2023/12/04 22:20:10;;;;;;;21.00;11.38;;;;;;;;;;4967245;28;20046;-80
2023/12/04 22:22:36;;;;;;;23.95;11.80;;;;;;;;;;4966278;28;20051;-80
2023/12/04 22:25:03;;;;;;;27.88;13.27;;;;;;;;;;4967504;28;20050;-78
2023/12/04 22:27:29;;;;;;;21.40;13.05;;;;;;;;;;4991276;28;20082;-79
2023/12/04 22:29:55;;;;;;;29.65;14.13;;;;;;;;;;4988155;28;20039;-78
2023/12/04 22:32:22;;;;;;;18.48;11.38;;;;;;;;;;4986615;28;20058;-79
2023/12/04 22:34:48;;;;;;;21.25;11.68;;;;;;;;;;4965401;28;20127;-79
2023/12/04 22:37:14;;;;;;;23.42;11.13;;;;;;;;;;4983021;28;20514;-79
2023/12/04 22:39:40;;;;;;;19.23;12.18;;;;;;;;;;4950839;28;20429;-79
2023/12/04 22:42:07;;;;;;;26.00;12.93;;;;;;;;;;4982795;28;20035;-78
2023/12/04 22:44:34;;;;;;;23.02;12.55;;;;;;;;;;4983748;28;20517;-79
2023/12/04 22:47:00;;;;;;;23.88;11.23;;;;;;;;;;4985414;28;20047;-79
2023/12/04 22:49:26;;;;;;;24.90;12.63;;;;;;;;;;4984191;28;20193;-78
2023/12/04 22:51:52;;;;;;;28.63;13.63;;;;;;;;;;4969864;28;20042;-79
2023/12/04 22:54:18;;;;;;;31.38;15.57;;;;;;;;;;4980909;28;20043;-80
2023/12/04 22:56:44;;;;;;;24.63;12.60;;;;;;;;;;4963839;28;20039;-78
2023/12/04 22:59:10;;;;;;;28.92;15.60;;;;;;;;;;4954990;28;20086;-79
2023/12/04 23:01:37;;;;;;;23.60;13.18;;;;;;;;;;4987766;28;20035;-81
2023/12/04 23:04:03;;;;;;;31.30;14.77;;;;;;;;;;4993654;28;20046;-79
2023/12/04 23:06:29;;;;;;;24.75;12.23;;;;;;;;;;4994846;28;20061;-81
2023/12/04 23:08:56;;;;;;;23.13;11.13;;;;;;;;;;4959250;28;20066;-80
2023/12/04 23:11:22;;;;;;;11.35;9.43;;;;;;;;;;4990328;28;20092;-81
2023/12/04 23:13:49;;;;;;;20.30;12.32;;;;;;;;;;4995750;28;20046;-81
2023/12/04 23:16:15;;;;;;;16.27;10.43;;;;;;;;;;4986428;28;20035;-79
2023/12/04 23:18:41;;;;;;;17.38;9.98;;;;;;;;;;4963792;28;20543;-79
2023/12/04 23:21:07;;;;;;;25.23;14.55;;;;;;;;;;4983009;28;20042;-79